sensor_id;sensor_type;location;lat;lon;timestamp;temperature;humidity
52769;DHT22;40471;44.534;18.644;2023-05-20T00:00:09;14.80;99.90
52769;DHT22;40471;44.534;18.644;2023-05-20T00:02:35;14.70;99.90
52769;DHT22;40471;44.534;18.644;2023-05-20T00:05:01;14.70;99.90
52769;DHT22;40471;44.534;18.644;2023-05-20T00:07:27;14.70;99.90
52769;DHT22;40471;44.534;18.644;2023-05-20T00:09:53;14.60;99.90
52769;DHT22;40471;44.534;18.644;2023-05-20T00:12:18;14.60;99.90
52769;DHT22;40471;44.534;18.644;2023-05-20T00:14:44;14.60;99.90
52769;DHT22;40471;44.534;18.644;2023-05-20T00:17:10;14.60;99.90
52769;DHT22;40471;44.534;18.644;2023-05-20T00:19:36;14.50;99.90
52769;DHT22;40471;44.534;18.644;2023-05-20T00:22:02;14.30;99.90
52769;DHT22;40471;44.534;18.644;2023-05-20T00:24:27;14.30;99.90
52769;DHT22;40471;44.534;18.644;2023-05-20T00:26:53;14.30;99.90
52769;DHT22;40471;44.534;18.644;2023-05-20T00:29:20;14.20;99.90
52769;DHT22;40471;44.534;18.644;2023-05-20T00:31:46;14.20;99.90
52769;DHT22;40471;44.534;18.644;2023-05-20T00:34:12;14.10;99.90
52769;DHT22;40471;44.534;18.644;2023-05-20T00:36:38;14.10;99.90
52769;DHT22;40471;44.534;18.644;2023-05-20T00:39:03;14.10;99.90
52769;DHT22;40471;44.534;18.644;2023-05-20T00:41:29;14.00;99.90
52769;DHT22;40471;44.534;18.644;2023-05-20T00:43:56;14.00;99.90
52769;DHT22;40471;44.534;18.644;2023-05-20T00:46:23;14.00;99.90
52769;DHT22;40471;44.534;18.644;2023-05-20T00:48:50;14.00;99.90
52769;DHT22;40471;44.534;18.644;2023-05-20T00:51:16;14.00;99.90
52769;DHT22;40471;44.534;18.644;2023-05-20T00:53:42;13.90;99.90
52769;DHT22;40471;44.534;18.644;2023-05-20T00:56:08;13.90;99.90
52769;DHT22;40471;44.534;18.644;2023-05-20T00:58:35;13.80;99.90
52769;DHT22;40471;44.534;18.644;2023-05-20T01:01:02;13.80;99.90
52769;DHT22;40471;44.534;18.644;2023-05-20T01:03:28;13.80;99.90
52769;DHT22;40471;44.534;18.644;2023-05-20T01:05:54;13.70;99.90
52769;DHT22;40471;44.534;18.644;2023-05-20T01:08:21;13.70;99.90
52769;DHT22;40471;44.534;18.644;2023-05-20T01:10:52;13.60;99.90
52769;DHT22;40471;44.534;18.644;2023-05-20T01:13:24;13.60;99.90
52769;DHT22;40471;44.534;18.644;2023-05-20T01:15:54;13.50;99.90
52769;DHT22;40471;44.534;18.644;2023-05-20T01:18:22;13.50;99.90
52769;DHT22;40471;44.534;18.644;2023-05-20T01:20:50;13.50;99.90
52769;DHT22;40471;44.534;18.644;2023-05-20T01:23:18;13.50;99.90
52769;DHT22;40471;44.534;18.644;2023-05-20T01:25:44;13.40;99.90
52769;DHT22;40471;44.534;18.644;2023-05-20T01:28:09;13.40;99.90
52769;DHT22;40471;44.534;18.644;2023-05-20T01:30:47;13.40;99.90
52769;DHT22;40471;44.534;18.644;2023-05-20T01:33:16;13.40;99.90
52769;DHT22;40471;44.534;18.644;2023-05-20T01:35:43;13.30;99.90
52769;DHT22;40471;44.534;18.644;2023-05-20T01:38:10;13.30;99.90
52769;DHT22;40471;44.534;18.644;2023-05-20T01:40:37;13.20;99.90
52769;DHT22;40471;44.534;18.644;2023-05-20T01:43:03;13.20;99.90
52769;DHT22;40471;44.534;18.644;2023-05-20T01:45:30;13.20;99.90
52769;DHT22;40471;44.534;18.644;2023-05-20T01:47:55;13.20;99.90
52769;DHT22;40471;44.534;18.644;2023-05-20T01:50:21;13.30;99.90
52769;DHT22;40471;44.534;18.644;2023-05-20T01:52:47;13.20;99.90
52769;DHT22;40471;44.534;18.644;2023-05-20T01:55:13;13.30;99.90
52769;DHT22;40471;44.534;18.644;2023-05-20T01:57:39;13.20;99.90
52769;DHT22;40471;44.534;18.644;2023-05-20T02:00:05;13.20;99.90
52769;DHT22;40471;44.534;18.644;2023-05-20T02:02:31;13.20;99.90
52769;DHT22;40471;44.534;18.644;2023-05-20T02:04:56;13.10;99.90
52769;DHT22;40471;44.534;18.644;2023-05-20T02:07:22;13.10;99.90
52769;DHT22;40471;44.534;18.644;2023-05-20T02:09:48;13.10;99.90
52769;DHT22;40471;44.534;18.644;2023-05-20T02:12:14;13.00;99.90
52769;DHT22;40471;44.534;18.644;2023-05-20T02:14:46;13.00;99.90
52769;DHT22;40471;44.534;18.644;2023-05-20T02:17:13;13.00;99.90
52769;DHT22;40471;44.534;18.644;2023-05-20T02:19:41;13.00;99.90
52769;DHT22;40471;44.534;18.644;2023-05-20T02:22:06;13.00;99.90
52769;DHT22;40471;44.534;18.644;2023-05-20T02:24:32;13.00;99.90
52769;DHT22;40471;44.534;18.644;2023-05-20T02:26:58;13.00;99.90
52769;DHT22;40471;44.534;18.644;2023-05-20T02:29:24;13.00;99.90
52769;DHT22;40471;44.534;18.644;2023-05-20T02:31:50;12.90;99.90
52769;DHT22;40471;44.534;18.644;2023-05-20T02:34:17;12.90;99.90
52769;DHT22;40471;44.534;18.644;2023-05-20T02:36:43;12.80;99.90
52769;DHT22;40471;44.534;18.644;2023-05-20T02:39:08;12.80;99.90
52769;DHT22;40471;44.534;18.644;2023-05-20T02:41:34;12.80;99.90
52769;DHT22;40471;44.534;18.644;2023-05-20T02:44:00;12.80;99.90
52769;DHT22;40471;44.534;18.644;2023-05-20T02:46:26;12.70;99.90
52769;DHT22;40471;44.534;18.644;2023-05-20T02:48:52;12.60;99.90
52769;DHT22;40471;44.534;18.644;2023-05-20T02:51:18;12.60;99.90
52769;DHT22;40471;44.534;18.644;2023-05-20T02:53:43;12.60;99.90
52769;DHT22;40471;44.534;18.644;2023-05-20T02:56:10;12.50;99.90
52769;DHT22;40471;44.534;18.644;2023-05-20T02:58:36;12.50;99.90
52769;DHT22;40471;44.534;18.644;2023-05-20T03:01:02;12.50;99.90
52769;DHT22;40471;44.534;18.644;2023-05-20T03:03:28;12.50;99.90
52769;DHT22;40471;44.534;18.644;2023-05-20T03:05:53;12.50;99.90
52769;DHT22;40471;44.534;18.644;2023-05-20T03:08:20;12.50;99.90
52769;DHT22;40471;44.534;18.644;2023-05-20T03:10:47;12.50;99.90
52769;DHT22;40471;44.534;18.644;2023-05-20T03:13:12;12.50;99.90
52769;DHT22;40471;44.534;18.644;2023-05-20T03:15:40;12.50;99.90
52769;DHT22;40471;44.534;18.644;2023-05-20T03:18:06;12.50;99.90
52769;DHT22;40471;44.534;18.644;2023-05-20T03:20:35;12.50;99.90
52769;DHT22;40471;44.534;18.644;2023-05-20T03:23:03;12.40;99.90
52769;DHT22;40471;44.534;18.644;2023-05-20T03:25:29;12.50;99.90
52769;DHT22;40471;44.534;18.644;2023-05-20T03:27:55;12.50;99.90
52769;DHT22;40471;44.534;18.644;2023-05-20T03:30:22;12.50;99.90
52769;DHT22;40471;44.534;18.644;2023-05-20T03:32:48;12.60;99.90
52769;DHT22;40471;44.534;18.644;2023-05-20T03:35:15;12.60;99.90
52769;DHT22;40471;44.534;18.644;2023-05-20T03:37:40;12.70;99.90
52769;DHT22;40471;44.534;18.644;2023-05-20T03:40:08;12.70;99.90
52769;DHT22;40471;44.534;18.644;2023-05-20T03:42:35;12.80;99.90
52769;DHT22;40471;44.534;18.644;2023-05-20T03:45:02;12.90;99.90
52769;DHT22;40471;44.534;18.644;2023-05-20T03:47:27;12.90;99.90
52769;DHT22;40471;44.534;18.644;2023-05-20T03:49:53;13.00;99.90
52769;DHT22;40471;44.534;18.644;2023-05-20T03:52:19;13.00;99.90
52769;DHT22;40471;44.534;18.644;2023-05-20T03:54:45;13.10;99.90
52769;DHT22;40471;44.534;18.644;2023-05-20T03:57:11;13.20;99.90
52769;DHT22;40471;44.534;18.644;2023-05-20T03:59:37;13.30;99.90
52769;DHT22;40471;44.534;18.644;2023-05-20T04:02:04;13.40;99.90
52769;DHT22;40471;44.534;18.644;2023-05-20T04:04:30;13.50;99.90
52769;DHT22;40471;44.534;18.644;2023-05-20T04:06:57;13.60;99.90
52769;DHT22;40471;44.534;18.644;2023-05-20T04:09:25;13.70;99.90
52769;DHT22;40471;44.534;18.644;2023-05-20T04:11:51;13.80;99.90
52769;DHT22;40471;44.534;18.644;2023-05-20T04:14:17;14.00;99.90
52769;DHT22;40471;44.534;18.644;2023-05-20T04:16:43;14.00;99.90
52769;DHT22;40471;44.534;18.644;2023-05-20T04:19:10;14.10;99.90
52769;DHT22;40471;44.534;18.644;2023-05-20T04:21:37;14.10;99.90
52769;DHT22;40471;44.534;18.644;2023-05-20T04:24:03;14.10;99.90
52769;DHT22;40471;44.534;18.644;2023-05-20T04:26:29;14.20;99.90
52769;DHT22;40471;44.534;18.644;2023-05-20T04:28:55;14.20;99.90
52769;DHT22;40471;44.534;18.644;2023-05-20T04:31:24;14.30;99.90
52769;DHT22;40471;44.534;18.644;2023-05-20T04:33:53;14.30;99.90
52769;DHT22;40471;44.534;18.644;2023-05-20T04:36:19;14.30;99.90
52769;DHT22;40471;44.534;18.644;2023-05-20T04:38:45;14.40;99.90
52769;DHT22;40471;44.534;18.644;2023-05-20T04:41:12;14.50;99.90
52769;DHT22;40471;44.534;18.644;2023-05-20T04:43:38;14.60;99.90
52769;DHT22;40471;44.534;18.644;2023-05-20T04:46:04;14.70;99.90
52769;DHT22;40471;44.534;18.644;2023-05-20T04:48:31;14.70;99.90
52769;DHT22;40471;44.534;18.644;2023-05-20T04:50:57;14.70;99.90
52769;DHT22;40471;44.534;18.644;2023-05-20T04:53:23;14.80;99.90
52769;DHT22;40471;44.534;18.644;2023-05-20T04:55:48;14.80;99.90
52769;DHT22;40471;44.534;18.644;2023-05-20T04:58:18;14.90;99.90
52769;DHT22;40471;44.534;18.644;2023-05-20T05:00:44;15.00;99.90
52769;DHT22;40471;44.534;18.644;2023-05-20T05:03:11;15.10;99.90
52769;DHT22;40471;44.534;18.644;2023-05-20T05:05:40;15.10;99.90
52769;DHT22;40471;44.534;18.644;2023-05-20T05:08:07;15.20;99.90
52769;DHT22;40471;44.534;18.644;2023-05-20T05:10:34;15.40;99.90
52769;DHT22;40471;44.534;18.644;2023-05-20T05:13:00;15.60;99.90
52769;DHT22;40471;44.534;18.644;2023-05-20T05:15:27;15.70;99.90
52769;DHT22;40471;44.534;18.644;2023-05-20T05:17:53;15.90;99.90
52769;DHT22;40471;44.534;18.644;2023-05-20T05:20:19;16.00;99.90
52769;DHT22;40471;44.534;18.644;2023-05-20T05:22:45;15.90;99.90
52769;DHT22;40471;44.534;18.644;2023-05-20T05:25:11;15.80;99.90
52769;DHT22;40471;44.534;18.644;2023-05-20T05:27:37;15.80;99.90
52769;DHT22;40471;44.534;18.644;2023-05-20T05:30:04;15.60;99.90
52769;DHT22;40471;44.534;18.644;2023-05-20T05:32:31;15.50;99.90
52769;DHT22;40471;44.534;18.644;2023-05-20T05:34:57;15.50;99.90
52769;DHT22;40471;44.534;18.644;2023-05-20T05:37:22;15.60;99.90
52769;DHT22;40471;44.534;18.644;2023-05-20T05:39:48;15.70;99.90
52769;DHT22;40471;44.534;18.644;2023-05-20T05:42:14;15.90;99.90
52769;DHT22;40471;44.534;18.644;2023-05-20T05:44:40;16.10;99.90
52769;DHT22;40471;44.534;18.644;2023-05-20T05:47:06;16.20;99.90
52769;DHT22;40471;44.534;18.644;2023-05-20T05:49:33;16.40;99.90
52769;DHT22;40471;44.534;18.644;2023-05-20T05:51:58;16.50;99.90
52769;DHT22;40471;44.534;18.644;2023-05-20T05:54:24;16.60;99.90
52769;DHT22;40471;44.534;18.644;2023-05-20T05:56:51;16.60;99.90
52769;DHT22;40471;44.534;18.644;2023-05-20T05:59:17;16.60;99.90
52769;DHT22;40471;44.534;18.644;2023-05-20T06:01:43;16.50;99.90
52769;DHT22;40471;44.534;18.644;2023-05-20T06:04:09;16.50;99.90
52769;DHT22;40471;44.534;18.644;2023-05-20T06:06:35;16.50;99.90
52769;DHT22;40471;44.534;18.644;2023-05-20T06:09:01;16.50;99.90
52769;DHT22;40471;44.534;18.644;2023-05-20T06:11:27;16.60;99.90
52769;DHT22;40471;44.534;18.644;2023-05-20T06:13:52;16.80;99.90
52769;DHT22;40471;44.534;18.644;2023-05-20T06:16:18;17.10;99.90
52769;DHT22;40471;44.534;18.644;2023-05-20T06:18:47;17.30;99.90
52769;DHT22;40471;44.534;18.644;2023-05-20T06:21:16;17.50;99.90
52769;DHT22;40471;44.534;18.644;2023-05-20T06:23:42;17.80;99.90
52769;DHT22;40471;44.534;18.644;2023-05-20T06:26:07;18.00;99.90
52769;DHT22;40471;44.534;18.644;2023-05-20T06:28:33;18.20;99.90
52769;DHT22;40471;44.534;18.644;2023-05-20T06:30:59;18.50;99.90
52769;DHT22;40471;44.534;18.644;2023-05-20T06:33:26;18.60;99.90
52769;DHT22;40471;44.534;18.644;2023-05-20T06:35:54;19.10;99.90
52769;DHT22;40471;44.534;18.644;2023-05-20T06:38:20;19.50;99.90
52769;DHT22;40471;44.534;18.644;2023-05-20T06:40:49;19.80;99.90
52769;DHT22;40471;44.534;18.644;2023-05-20T06:43:15;20.10;99.90
52769;DHT22;40471;44.534;18.644;2023-05-20T06:45:42;20.40;99.90
52769;DHT22;40471;44.534;18.644;2023-05-20T06:48:08;21.10;99.90
52769;DHT22;40471;44.534;18.644;2023-05-20T06:50:34;22.20;99.90
52769;DHT22;40471;44.534;18.644;2023-05-20T06:53:00;22.80;99.90
52769;DHT22;40471;44.534;18.644;2023-05-20T06:55:26;23.10;99.90
52769;DHT22;40471;44.534;18.644;2023-05-20T06:57:52;24.00;99.90
52769;DHT22;40471;44.534;18.644;2023-05-20T07:00:18;24.50;99.90
52769;DHT22;40471;44.534;18.644;2023-05-20T07:02:44;25.00;99.90
52769;DHT22;40471;44.534;18.644;2023-05-20T07:05:10;25.60;99.90
52769;DHT22;40471;44.534;18.644;2023-05-20T07:07:36;25.60;99.90
52769;DHT22;40471;44.534;18.644;2023-05-20T07:10:02;25.50;99.90
52769;DHT22;40471;44.534;18.644;2023-05-20T07:12:30;25.60;99.90
52769;DHT22;40471;44.534;18.644;2023-05-20T07:14:56;26.10;99.90
52769;DHT22;40471;44.534;18.644;2023-05-20T07:17:22;26.20;99.90
52769;DHT22;40471;44.534;18.644;2023-05-20T07:19:49;26.00;99.90
52769;DHT22;40471;44.534;18.644;2023-05-20T07:22:14;25.80;99.90
52769;DHT22;40471;44.534;18.644;2023-05-20T07:24:40;25.20;99.90
52769;DHT22;40471;44.534;18.644;2023-05-20T07:27:06;25.40;99.90
52769;DHT22;40471;44.534;18.644;2023-05-20T07:29:33;26.40;99.90
52769;DHT22;40471;44.534;18.644;2023-05-20T07:31:59;26.80;99.90
52769;DHT22;40471;44.534;18.644;2023-05-20T07:34:25;26.70;99.90
52769;DHT22;40471;44.534;18.644;2023-05-20T07:36:51;26.80;99.90
52769;DHT22;40471;44.534;18.644;2023-05-20T07:39:17;27.10;99.90
52769;DHT22;40471;44.534;18.644;2023-05-20T07:41:44;27.70;99.90
52769;DHT22;40471;44.534;18.644;2023-05-20T07:44:09;28.40;99.00
52769;DHT22;40471;44.534;18.644;2023-05-20T07:46:38;29.20;97.90
52769;DHT22;40471;44.534;18.644;2023-05-20T07:49:04;30.00;95.80
52769;DHT22;40471;44.534;18.644;2023-05-20T07:51:30;30.90;92.90
52769;DHT22;40471;44.534;18.644;2023-05-20T07:53:56;30.70;92.10
52769;DHT22;40471;44.534;18.644;2023-05-20T07:56:22;30.80;91.90
52769;DHT22;40471;44.534;18.644;2023-05-20T07:58:53;30.70;90.40
52769;DHT22;40471;44.534;18.644;2023-05-20T08:01:19;30.30;90.70
52769;DHT22;40471;44.534;18.644;2023-05-20T08:03:45;30.00;91.70
52769;DHT22;40471;44.534;18.644;2023-05-20T08:06:11;29.00;92.30
52769;DHT22;40471;44.534;18.644;2023-05-20T08:08:37;28.50;94.00
52769;DHT22;40471;44.534;18.644;2023-05-20T08:11:06;28.10;94.70
52769;DHT22;40471;44.534;18.644;2023-05-20T08:13:32;27.80;95.10
52769;DHT22;40471;44.534;18.644;2023-05-20T08:15:58;27.80;98.00
52769;DHT22;40471;44.534;18.644;2023-05-20T08:18:23;28.20;96.40
52769;DHT22;40471;44.534;18.644;2023-05-20T08:20:49;28.60;96.10
52769;DHT22;40471;44.534;18.644;2023-05-20T08:23:15;28.80;96.20
52769;DHT22;40471;44.534;18.644;2023-05-20T08:25:41;29.50;95.60
52769;DHT22;40471;44.534;18.644;2023-05-20T08:28:07;30.40;94.10
52769;DHT22;40471;44.534;18.644;2023-05-20T08:30:33;30.60;94.40
52769;DHT22;40471;44.534;18.644;2023-05-20T08:32:59;30.50;93.70
52769;DHT22;40471;44.534;18.644;2023-05-20T08:35:25;30.30;93.70
52769;DHT22;40471;44.534;18.644;2023-05-20T08:37:51;30.00;93.90
52769;DHT22;40471;44.534;18.644;2023-05-20T08:40:20;30.20;93.00
52769;DHT22;40471;44.534;18.644;2023-05-20T08:42:48;30.40;93.80
52769;DHT22;40471;44.534;18.644;2023-05-20T08:45:17;30.30;93.80
52769;DHT22;40471;44.534;18.644;2023-05-20T08:47:43;30.80;94.60
52769;DHT22;40471;44.534;18.644;2023-05-20T08:50:11;31.50;92.70
52769;DHT22;40471;44.534;18.644;2023-05-20T08:52:45;32.20;91.40
52769;DHT22;40471;44.534;18.644;2023-05-20T08:55:18;32.40;90.90
52769;DHT22;40471;44.534;18.644;2023-05-20T08:57:53;32.60;90.10
52769;DHT22;40471;44.534;18.644;2023-05-20T09:00:21;33.20;88.70
52769;DHT22;40471;44.534;18.644;2023-05-20T09:02:51;33.60;86.70
52769;DHT22;40471;44.534;18.644;2023-05-20T09:05:18;33.80;85.10
52769;DHT22;40471;44.534;18.644;2023-05-20T09:07:44;33.80;84.40
52769;DHT22;40471;44.534;18.644;2023-05-20T09:10:10;33.80;83.10
52769;DHT22;40471;44.534;18.644;2023-05-20T09:12:36;33.50;84.20
52769;DHT22;40471;44.534;18.644;2023-05-20T09:15:03;33.50;83.50
52769;DHT22;40471;44.534;18.644;2023-05-20T09:17:29;33.60;82.90
52769;DHT22;40471;44.534;18.644;2023-05-20T09:19:55;33.60;85.00
52769;DHT22;40471;44.534;18.644;2023-05-20T09:22:22;34.00;82.50
52769;DHT22;40471;44.534;18.644;2023-05-20T09:24:49;33.70;83.90
52769;DHT22;40471;44.534;18.644;2023-05-20T09:27:15;33.70;81.90
52769;DHT22;40471;44.534;18.644;2023-05-20T09:29:41;34.00;81.50
52769;DHT22;40471;44.534;18.644;2023-05-20T09:32:09;34.40;80.90
52769;DHT22;40471;44.534;18.644;2023-05-20T09:34:39;34.70;80.50
52769;DHT22;40471;44.534;18.644;2023-05-20T09:37:06;34.80;77.70
52769;DHT22;40471;44.534;18.644;2023-05-20T09:39:40;34.50;76.00
52769;DHT22;40471;44.534;18.644;2023-05-20T09:42:19;34.40;77.60
52769;DHT22;40471;44.534;18.644;2023-05-20T09:44:47;34.60;76.00
52769;DHT22;40471;44.534;18.644;2023-05-20T09:47:14;34.80;75.60
52769;DHT22;40471;44.534;18.644;2023-05-20T09:49:40;34.90;74.10
52769;DHT22;40471;44.534;18.644;2023-05-20T09:52:07;34.80;72.60
52769;DHT22;40471;44.534;18.644;2023-05-20T09:54:34;34.40;74.00
52769;DHT22;40471;44.534;18.644;2023-05-20T09:57:01;34.50;73.20
52769;DHT22;40471;44.534;18.644;2023-05-20T09:59:29;34.50;74.40
52769;DHT22;40471;44.534;18.644;2023-05-20T10:01:56;34.30;64.60
52769;DHT22;40471;44.534;18.644;2023-05-20T10:04:22;34.30;64.00
52769;DHT22;40471;44.534;18.644;2023-05-20T10:10:02;32.70;60.10
52769;DHT22;40471;44.534;18.644;2023-05-20T10:13:07;32.60;59.80
52769;DHT22;40471;44.534;18.644;2023-05-20T10:21:21;32.10;60.70
52769;DHT22;40471;44.534;18.644;2023-05-20T10:23:49;31.70;62.20
52769;DHT22;40471;44.534;18.644;2023-05-20T10:26:17;31.70;60.50
52769;DHT22;40471;44.534;18.644;2023-05-20T10:28:43;31.40;59.20
52769;DHT22;40471;44.534;18.644;2023-05-20T10:31:22;31.10;60.00
52769;DHT22;40471;44.534;18.644;2023-05-20T10:33:51;30.80;61.40
52769;DHT22;40471;44.534;18.644;2023-05-20T10:36:28;31.00;61.10
52769;DHT22;40471;44.534;18.644;2023-05-20T10:38:58;31.40;61.80
52769;DHT22;40471;44.534;18.644;2023-05-20T10:41:27;31.80;61.60
52769;DHT22;40471;44.534;18.644;2023-05-20T10:44:03;32.30;61.40
52769;DHT22;40471;44.534;18.644;2023-05-20T10:54:04;31.80;61.80
52769;DHT22;40471;44.534;18.644;2023-05-20T10:56:39;32.20;60.50
52769;DHT22;40471;44.534;18.644;2023-05-20T10:59:05;31.80;61.80
52769;DHT22;40471;44.534;18.644;2023-05-20T11:01:32;32.10;62.40
52769;DHT22;40471;44.534;18.644;2023-05-20T11:03:59;32.00;62.10
52769;DHT22;40471;44.534;18.644;2023-05-20T11:06:28;31.20;64.20
52769;DHT22;40471;44.534;18.644;2023-05-20T11:08:54;30.50;64.70
52769;DHT22;40471;44.534;18.644;2023-05-20T11:11:23;29.70;65.40
52769;DHT22;40471;44.534;18.644;2023-05-20T11:14:08;29.90;66.20
52769;DHT22;40471;44.534;18.644;2023-05-20T11:16:41;30.10;67.00
52769;DHT22;40471;44.534;18.644;2023-05-20T11:19:13;30.40;68.90
52769;DHT22;40471;44.534;18.644;2023-05-20T11:21:45;30.90;67.80
52769;DHT22;40471;44.534;18.644;2023-05-20T11:24:12;31.10;66.70
52769;DHT22;40471;44.534;18.644;2023-05-20T11:26:38;31.40;66.50
52769;DHT22;40471;44.534;18.644;2023-05-20T11:29:05;31.40;66.40
52769;DHT22;40471;44.534;18.644;2023-05-20T11:31:31;31.40;66.50
52769;DHT22;40471;44.534;18.644;2023-05-20T11:33:59;30.90;67.30
52769;DHT22;40471;44.534;18.644;2023-05-20T11:36:30;31.00;67.40
52769;DHT22;40471;44.534;18.644;2023-05-20T11:38:57;30.80;68.40
52769;DHT22;40471;44.534;18.644;2023-05-20T11:41:24;31.20;68.30
52769;DHT22;40471;44.534;18.644;2023-05-20T11:43:57;31.90;68.20
52769;DHT22;40471;44.534;18.644;2023-05-20T11:46:27;32.00;68.80
52769;DHT22;40471;44.534;18.644;2023-05-20T11:48:54;32.10;66.70
52769;DHT22;40471;44.534;18.644;2023-05-20T11:51:23;32.50;67.50
52769;DHT22;40471;44.534;18.644;2023-05-20T11:53:51;32.60;66.50
52769;DHT22;40471;44.534;18.644;2023-05-20T11:56:17;32.60;67.30
52769;DHT22;40471;44.534;18.644;2023-05-20T11:58:43;32.00;67.70
52769;DHT22;40471;44.534;18.644;2023-05-20T12:01:10;32.00;68.40
52769;DHT22;40471;44.534;18.644;2023-05-20T12:03:36;32.10;66.50
52769;DHT22;40471;44.534;18.644;2023-05-20T12:06:02;32.00;66.40
52769;DHT22;40471;44.534;18.644;2023-05-20T12:08:28;31.90;68.70
52769;DHT22;40471;44.534;18.644;2023-05-20T12:10:54;32.00;70.40
52769;DHT22;40471;44.534;18.644;2023-05-20T12:13:19;32.00;70.30
52769;DHT22;40471;44.534;18.644;2023-05-20T12:15:45;31.80;70.00
52769;DHT22;40471;44.534;18.644;2023-05-20T12:18:11;31.50;70.40
52769;DHT22;40471;44.534;18.644;2023-05-20T12:20:37;31.40;71.90
52769;DHT22;40471;44.534;18.644;2023-05-20T12:23:03;31.20;72.00
52769;DHT22;40471;44.534;18.644;2023-05-20T12:25:29;31.00;73.30
52769;DHT22;40471;44.534;18.644;2023-05-20T12:27:55;30.80;72.80
52769;DHT22;40471;44.534;18.644;2023-05-20T12:30:22;30.70;73.50
52769;DHT22;40471;44.534;18.644;2023-05-20T12:32:49;30.70;73.40
52769;DHT22;40471;44.534;18.644;2023-05-20T12:35:16;30.70;72.10
52769;DHT22;40471;44.534;18.644;2023-05-20T12:37:42;30.70;71.60
52769;DHT22;40471;44.534;18.644;2023-05-20T12:40:10;30.70;72.50
52769;DHT22;40471;44.534;18.644;2023-05-20T12:42:37;31.20;69.90
52769;DHT22;40471;44.534;18.644;2023-05-20T12:45:04;31.30;69.10
52769;DHT22;40471;44.534;18.644;2023-05-20T12:47:31;31.20;67.30
52769;DHT22;40471;44.534;18.644;2023-05-20T12:49:58;31.00;69.00
52769;DHT22;40471;44.534;18.644;2023-05-20T12:52:25;31.30;68.00
52769;DHT22;40471;44.534;18.644;2023-05-20T12:54:52;31.30;65.50
52769;DHT22;40471;44.534;18.644;2023-05-20T12:57:18;30.90;66.20
52769;DHT22;40471;44.534;18.644;2023-05-20T12:59:44;30.50;67.30
52769;DHT22;40471;44.534;18.644;2023-05-20T13:02:10;30.50;66.60
52769;DHT22;40471;44.534;18.644;2023-05-20T13:04:36;30.40;66.80
52769;DHT22;40471;44.534;18.644;2023-05-20T13:07:02;29.90;66.30
52769;DHT22;40471;44.534;18.644;2023-05-20T13:09:28;29.50;67.70
52769;DHT22;40471;44.534;18.644;2023-05-20T13:11:54;29.50;66.80
52769;DHT22;40471;44.534;18.644;2023-05-20T13:14:20;29.50;66.60
52769;DHT22;40471;44.534;18.644;2023-05-20T13:16:47;29.00;67.40
52769;DHT22;40471;44.534;18.644;2023-05-20T13:19:13;28.70;68.20
52769;DHT22;40471;44.534;18.644;2023-05-20T13:21:39;28.80;68.60
52769;DHT22;40471;44.534;18.644;2023-05-20T13:24:05;29.10;69.40
52769;DHT22;40471;44.534;18.644;2023-05-20T13:26:31;29.00;69.50
52769;DHT22;40471;44.534;18.644;2023-05-20T13:28:57;29.00;70.00
52769;DHT22;40471;44.534;18.644;2023-05-20T13:31:23;29.10;69.70
52769;DHT22;40471;44.534;18.644;2023-05-20T13:33:49;29.30;71.70
52769;DHT22;40471;44.534;18.644;2023-05-20T13:36:15;29.40;70.10
52769;DHT22;40471;44.534;18.644;2023-05-20T13:38:40;29.10;69.40
52769;DHT22;40471;44.534;18.644;2023-05-20T13:41:06;28.90;69.70
52769;DHT22;40471;44.534;18.644;2023-05-20T13:43:32;28.50;68.80
52769;DHT22;40471;44.534;18.644;2023-05-20T13:45:58;28.00;69.30
52769;DHT22;40471;44.534;18.644;2023-05-20T13:48:24;27.80;69.40
52769;DHT22;40471;44.534;18.644;2023-05-20T13:50:50;27.70;71.20
52769;DHT22;40471;44.534;18.644;2023-05-20T13:53:16;27.50;69.60
52769;DHT22;40471;44.534;18.644;2023-05-20T13:55:41;27.40;70.30
52769;DHT22;40471;44.534;18.644;2023-05-20T13:58:07;27.40;70.90
52769;DHT22;40471;44.534;18.644;2023-05-20T14:00:37;27.50;70.50
52769;DHT22;40471;44.534;18.644;2023-05-20T14:03:03;27.70;70.20
52769;DHT22;40471;44.534;18.644;2023-05-20T14:05:32;27.90;70.20
52769;DHT22;40471;44.534;18.644;2023-05-20T14:07:58;28.00;70.20
52769;DHT22;40471;44.534;18.644;2023-05-20T14:10:24;28.10;70.90
52769;DHT22;40471;44.534;18.644;2023-05-20T14:12:51;28.10;70.70
52769;DHT22;40471;44.534;18.644;2023-05-20T14:15:18;28.20;71.10
52769;DHT22;40471;44.534;18.644;2023-05-20T14:17:44;28.40;70.70
52769;DHT22;40471;44.534;18.644;2023-05-20T14:20:10;28.50;70.80
52769;DHT22;40471;44.534;18.644;2023-05-20T14:22:35;28.30;70.40
52769;DHT22;40471;44.534;18.644;2023-05-20T14:25:02;28.10;69.20
52769;DHT22;40471;44.534;18.644;2023-05-20T14:27:28;27.60;70.70
52769;DHT22;40471;44.534;18.644;2023-05-20T14:29:54;27.40;71.50
52769;DHT22;40471;44.534;18.644;2023-05-20T14:32:20;27.50;70.80
52769;DHT22;40471;44.534;18.644;2023-05-20T14:34:46;27.20;71.20
52769;DHT22;40471;44.534;18.644;2023-05-20T14:37:12;26.90;72.00
52769;DHT22;40471;44.534;18.644;2023-05-20T14:39:38;26.90;71.70
52769;DHT22;40471;44.534;18.644;2023-05-20T14:42:04;27.10;71.70
52769;DHT22;40471;44.534;18.644;2023-05-20T14:44:30;26.90;72.30
52769;DHT22;40471;44.534;18.644;2023-05-20T14:46:56;26.90;73.20
52769;DHT22;40471;44.534;18.644;2023-05-20T14:49:22;27.00;73.90
52769;DHT22;40471;44.534;18.644;2023-05-20T14:51:48;27.10;72.10
52769;DHT22;40471;44.534;18.644;2023-05-20T14:54:14;27.00;72.50
52769;DHT22;40471;44.534;18.644;2023-05-20T14:56:41;27.00;72.70
52769;DHT22;40471;44.534;18.644;2023-05-20T14:59:07;27.10;72.90
52769;DHT22;40471;44.534;18.644;2023-05-20T15:01:34;27.10;72.70
52769;DHT22;40471;44.534;18.644;2023-05-20T15:04:00;27.00;72.40
52769;DHT22;40471;44.534;18.644;2023-05-20T15:06:33;27.00;72.50
52769;DHT22;40471;44.534;18.644;2023-05-20T15:09:01;26.70;72.60
52769;DHT22;40471;44.534;18.644;2023-05-20T15:11:27;26.50;73.20
52769;DHT22;40471;44.534;18.644;2023-05-20T15:13:53;26.40;74.00
52769;DHT22;40471;44.534;18.644;2023-05-20T15:16:19;26.30;75.00
52769;DHT22;40471;44.534;18.644;2023-05-20T15:18:51;26.40;74.20
52769;DHT22;40471;44.534;18.644;2023-05-20T15:21:17;26.40;73.50
52769;DHT22;40471;44.534;18.644;2023-05-20T15:23:43;26.50;73.90
52769;DHT22;40471;44.534;18.644;2023-05-20T15:26:09;26.50;73.40
52769;DHT22;40471;44.534;18.644;2023-05-20T15:28:40;26.60;73.50